createdAt,value
2018-04-30T00:00:57.419Z,4.07
2018-04-30T00:03:30.688Z,7.27
2018-04-30T00:06:03.948Z,7.17
2018-04-30T00:08:37.234Z,4.07
2018-04-30T00:11:10.495Z,4.37
2018-04-30T00:13:43.762Z,5.43
2018-04-30T00:16:17.012Z,8.17
2018-04-30T00:18:50.287Z,5.03
2018-04-30T00:21:23.539Z,6.23
2018-04-30T00:23:56.811Z,3.57
2018-04-30T00:26:30.076Z,4.40
2018-04-30T00:29:04.115Z,4.70
2018-04-30T00:31:37.380Z,3.83
2018-04-30T00:34:11.416Z,7.23
2018-04-30T00:36:44.668Z,6.43
2018-04-30T00:39:17.955Z,3.40
2018-04-30T00:41:51.207Z,3.83
2018-04-30T00:44:24.484Z,5.03
2018-04-30T00:46:57.740Z,3.77
2018-04-30T00:49:31.021Z,4.43
2018-04-30T00:52:04.276Z,4.93
2018-04-30T00:54:55.360Z,4.13
2018-04-30T00:57:29.385Z,4.67
2018-04-30T01:00:02.656Z,3.20
2018-04-30T01:02:36.684Z,7.33
2018-04-30T01:05:09.968Z,4.40
2018-04-30T01:07:43.978Z,3.10
2018-04-30T01:10:18.022Z,4.63
2018-04-30T01:12:51.276Z,4.73
2018-04-30T01:15:24.549Z,3.57
2018-04-30T01:17:57.803Z,4.93
2018-04-30T01:20:31.079Z,6.13
2018-04-30T01:23:05.122Z,7.20
2018-04-30T01:25:38.367Z,3.33
2018-04-30T01:28:12.404Z,4.00
2018-04-30T01:30:45.668Z,5.40
2018-04-30T01:33:19.287Z,4.10
2018-04-30T01:35:53.314Z,5.00
2018-04-30T01:38:26.600Z,5.13
2018-04-30T01:41:00.612Z,4.20
2018-04-30T01:43:33.891Z,6.30
2018-04-30T01:46:07.912Z,5.27
2018-04-30T01:48:41.948Z,6.10
2018-04-30T01:51:15.205Z,4.93
2018-04-30T01:53:49.252Z,4.73
2018-04-30T01:56:22.512Z,5.50
2018-04-30T01:58:56.560Z,6.17
2018-04-30T02:01:29.807Z,4.63
2018-04-30T02:04:03.860Z,5.40
2018-04-30T02:06:37.108Z,5.10
2018-04-30T02:09:10.381Z,6.83
2018-04-30T02:11:43.635Z,4.57
2018-04-30T02:14:16.908Z,4.67
2018-04-30T02:16:50.161Z,5.27
2018-04-30T02:19:23.447Z,4.87
2018-04-30T02:21:56.705Z,4.43
2018-04-30T02:24:29.979Z,2.77
2018-04-30T02:27:03.241Z,10.13
2018-04-30T02:29:36.520Z,3.77
2018-04-30T02:32:09.775Z,5.50
2018-04-30T02:34:43.056Z,4.73
2018-04-30T02:37:17.077Z,5.37
2018-04-30T02:39:50.346Z,3.90
2018-04-30T02:42:23.620Z,4.07
2018-04-30T02:44:56.884Z,4.67
2018-04-30T02:47:30.144Z,3.83
2018-04-30T02:50:03.399Z,4.20
2018-04-30T02:52:36.674Z,4.50
2018-04-30T02:55:09.927Z,3.70
2018-04-30T02:57:43.204Z,6.57
2018-04-30T03:00:16.456Z,5.33
2018-04-30T03:02:49.719Z,4.63
2018-04-30T03:05:22.971Z,8.07
2018-04-30T03:07:56.244Z,5.47
2018-04-30T03:10:29.501Z,7.10
2018-04-30T03:13:02.781Z,6.77
2018-04-30T03:15:36.036Z,2.90
2018-04-30T03:18:09.325Z,8.00
2018-04-30T03:20:42.576Z,6.00
2018-04-30T03:23:15.841Z,5.77
2018-04-30T03:25:49.096Z,6.40
2018-04-30T03:28:22.376Z,4.83
2018-04-30T03:30:55.633Z,9.70
2018-04-30T03:33:28.926Z,7.47
2018-04-30T03:36:02.174Z,4.53
2018-04-30T03:38:35.441Z,6.07
2018-04-30T03:41:08.700Z,4.63
2018-04-30T03:43:42.750Z,6.10
2018-04-30T03:46:16.002Z,8.37
2018-04-30T03:48:49.284Z,6.83
2018-04-30T03:51:22.540Z,9.93
2018-04-30T03:53:55.895Z,8.80
2018-04-30T03:56:29.154Z,5.50
2018-04-30T03:59:02.424Z,6.77
2018-04-30T04:01:53.575Z,7.80
2018-04-30T04:04:44.720Z,6.13
2018-04-30T04:07:20.694Z,5.37
2018-04-30T04:09:53.964Z,5.80
2018-04-30T04:12:27.981Z,3.83
2018-04-30T04:15:01.260Z,3.00
2018-04-30T04:17:34.511Z,1.60
2018-04-30T04:20:07.784Z,4.00
2018-04-30T04:22:41.042Z,1.50
2018-04-30T04:25:14.313Z,1.47
2018-04-30T04:27:47.584Z,3.63
2018-04-30T04:30:20.852Z,3.73
2018-04-30T04:32:54.115Z,2.13
2018-04-30T04:35:27.379Z,0.93
2018-04-30T04:38:00.640Z,3.40
2018-04-30T04:40:33.916Z,1.13
2018-04-30T04:43:07.940Z,0.93
2018-04-30T04:45:41.214Z,4.63
2018-04-30T04:48:15.244Z,2.97
2018-04-30T04:50:48.515Z,1.60
2018-04-30T04:53:22.535Z,1.77
2018-04-30T04:55:56.571Z,3.00
2018-04-30T04:58:29.848Z,2.23
2018-04-30T05:01:03.875Z,4.07
2018-04-30T05:03:37.139Z,4.93
2018-04-30T05:06:11.160Z,2.53
2018-04-30T05:08:45.201Z,0.67
2018-04-30T05:11:18.452Z,0.83
2018-04-30T05:13:52.492Z,2.63
2018-04-30T05:16:25.748Z,1.80
2018-04-30T05:18:59.033Z,0.70
2018-04-30T05:21:32.285Z,3.83
2018-04-30T05:24:05.572Z,0.30
2018-04-30T05:26:38.830Z,2.37
2018-04-30T05:29:12.096Z,3.00
2018-04-30T05:31:45.358Z,2.40
2018-04-30T05:34:18.640Z,2.00
2018-04-30T05:36:51.896Z,0.50
2018-04-30T05:39:25.166Z,0.23
2018-04-30T05:41:58.429Z,2.87
2018-04-30T05:44:31.707Z,0.40
2018-04-30T05:47:05.735Z,0.50
2018-04-30T05:49:39.003Z,0.50
2018-04-30T05:52:13.034Z,0.33
2018-04-30T05:54:46.304Z,1.12
2018-04-30T05:57:20.325Z,0.30
2018-04-30T05:59:54.360Z,1.37
2018-04-30T06:02:27.616Z,1.60
2018-04-30T06:05:00.899Z,0.50
2018-04-30T06:07:34.155Z,0.40
2018-04-30T06:10:07.430Z,0.67
2018-04-30T06:12:40.684Z,3.07
2018-04-30T06:15:14.036Z,1.23
2018-04-30T06:17:47.233Z,0.40
2018-04-30T06:20:23.392Z,1.73
2018-04-30T06:22:56.647Z,0.57
2018-04-30T06:25:30.679Z,0.50
2018-04-30T06:28:03.944Z,1.03
2018-04-30T06:30:37.216Z,0.57
2018-04-30T06:33:10.476Z,0.50
2018-04-30T06:35:43.833Z,0.80
2018-04-30T06:38:17.003Z,4.47
2018-04-30T06:40:50.282Z,1.10
2018-04-30T06:43:23.533Z,0.90
2018-04-30T06:45:56.824Z,0.57
2018-04-30T06:48:30.082Z,0.63
2018-04-30T06:51:03.348Z,0.50
2018-04-30T06:53:36.599Z,0.90
2018-04-30T06:56:09.884Z,0.93
2018-04-30T06:58:44.240Z,1.03
2018-04-30T07:01:17.514Z,1.17
2018-04-30T07:03:50.771Z,2.13
2018-04-30T07:06:24.036Z,0.40
2018-04-30T07:08:57.293Z,1.40
2018-04-30T07:11:31.335Z,0.77
2018-04-30T07:14:04.584Z,0.60
2018-04-30T07:16:37.859Z,0.57
2018-04-30T07:19:11.121Z,0.60
2018-04-30T07:21:44.387Z,0.60
2018-04-30T07:24:17.639Z,0.73
2018-04-30T07:26:50.912Z,0.83
2018-04-30T07:29:24.160Z,0.73
2018-04-30T07:31:57.439Z,0.60
2018-04-30T07:34:31.455Z,1.33
2018-04-30T07:37:05.499Z,2.73
2018-04-30T07:39:38.752Z,1.90
2018-04-30T07:42:12.799Z,1.07
2018-04-30T07:44:46.060Z,0.40
2018-04-30T07:47:20.095Z,1.93
2018-04-30T07:49:53.350Z,1.97
2018-04-30T07:52:26.615Z,0.77
2018-04-30T07:54:59.880Z,1.60
2018-04-30T07:57:33.174Z,0.97
2018-04-30T08:00:06.433Z,0.30
2018-04-30T08:02:39.709Z,1.10
2018-04-30T08:05:12.967Z,0.73
2018-04-30T08:07:46.272Z,0.50
2018-04-30T08:10:19.495Z,0.50
2018-04-30T08:12:52.771Z,0.57
2018-04-30T08:15:26.020Z,0.40
2018-04-30T08:17:59.292Z,0.70
2018-04-30T08:20:33.326Z,0.50
2018-04-30T08:23:06.588Z,1.13
2018-04-30T08:25:39.863Z,0.70
2018-04-30T08:28:13.121Z,0.53
2018-04-30T08:30:46.387Z,1.77
2018-04-30T08:33:20.400Z,0.70
2018-04-30T08:35:54.468Z,0.67
2018-04-30T08:38:27.721Z,0.50
2018-04-30T08:41:00.999Z,2.30
2018-04-30T08:43:35.024Z,1.23
2018-04-30T08:46:08.315Z,1.50
2018-04-30T08:48:41.574Z,0.50
2018-04-30T08:51:14.855Z,0.47
2018-04-30T08:53:48.192Z,0.90
2018-04-30T08:56:21.469Z,0.70
2018-04-30T08:58:55.483Z,0.60
2018-04-30T09:01:28.751Z,2.57
2018-04-30T09:04:02.005Z,0.80
2018-04-30T09:06:35.279Z,0.43
2018-04-30T09:09:08.529Z,2.60
2018-04-30T09:11:41.803Z,0.90
2018-04-30T09:14:15.060Z,1.90
2018-04-30T09:16:48.334Z,1.03
2018-04-30T09:19:22.350Z,0.83
2018-04-30T09:21:56.396Z,0.50
2018-04-30T09:24:29.651Z,3.43
2018-04-30T09:27:02.915Z,1.20
2018-04-30T09:29:36.169Z,0.60
2018-04-30T09:32:09.448Z,0.90
2018-04-30T09:34:42.704Z,1.33
2018-04-30T09:37:15.973Z,0.77
2018-04-30T09:39:49.229Z,1.07
2018-04-30T09:42:22.503Z,0.53
2018-04-30T09:44:55.756Z,0.90
2018-04-30T09:47:29.029Z,2.63
2018-04-30T09:50:02.293Z,0.77
2018-04-30T09:52:36.340Z,1.20
2018-04-30T09:55:09.597Z,1.00
2018-04-30T09:57:42.945Z,0.77
2018-04-30T10:00:16.115Z,2.03
2018-04-30T10:02:49.545Z,1.10
2018-04-30T10:05:23.064Z,0.97
2018-04-30T10:07:56.477Z,1.83
2018-04-30T10:10:30.710Z,1.00
2018-04-30T10:13:04.755Z,1.03
2018-04-30T10:15:38.019Z,1.57
2018-04-30T10:18:17.334Z,2.97
2018-04-30T10:20:50.583Z,1.40
2018-04-30T10:23:23.882Z,1.37
2018-04-30T10:25:57.126Z,2.83
2018-04-30T10:28:31.227Z,1.43
2018-04-30T10:31:04.431Z,0.80
2018-04-30T10:33:38.471Z,2.30
2018-04-30T10:36:11.732Z,1.17
2018-04-30T10:38:45.770Z,1.33
2018-04-30T10:41:19.037Z,1.30
2018-04-30T10:43:53.072Z,0.70
2018-04-30T10:46:26.325Z,0.97
2018-04-30T10:48:59.601Z,0.93
2018-04-30T10:51:32.880Z,2.20
2018-04-30T10:54:06.128Z,1.63
2018-04-30T10:56:39.378Z,0.83
2018-04-30T10:59:12.655Z,1.77
2018-04-30T11:01:45.916Z,1.33
2018-04-30T11:04:19.192Z,1.03
2018-04-30T11:06:52.446Z,1.77
2018-04-30T11:09:25.723Z,0.80
2018-04-30T11:11:58.984Z,2.13
2018-04-30T11:14:33.030Z,0.90
2018-04-30T11:17:06.282Z,0.57
2018-04-30T11:19:39.551Z,2.07
2018-04-30T11:22:12.809Z,1.00
2018-04-30T11:24:46.082Z,1.90
2018-04-30T11:27:19.347Z,1.57
2018-04-30T11:29:52.657Z,1.87
2018-04-30T11:32:26.678Z,0.83
2018-04-30T11:34:59.950Z,0.93
2018-04-30T11:37:33.203Z,2.13
2018-04-30T11:40:06.567Z,1.27
2018-04-30T11:42:39.735Z,0.80
2018-04-30T11:45:13.020Z,0.63
2018-04-30T11:47:46.270Z,2.00
2018-04-30T11:50:19.544Z,2.60
2018-04-30T11:52:52.810Z,1.20
2018-04-30T11:55:26.129Z,2.90
2018-04-30T11:57:59.342Z,1.57
2018-04-30T12:00:32.622Z,1.47
2018-04-30T12:03:05.873Z,1.43
2018-04-30T12:05:39.149Z,0.77
2018-04-30T12:08:12.408Z,1.40
2018-04-30T12:10:45.684Z,0.97
2018-04-30T12:13:18.942Z,3.53
2018-04-30T12:15:52.217Z,3.37
2018-04-30T12:18:25.679Z,1.10
2018-04-30T12:20:58.936Z,1.03
2018-04-30T12:23:32.314Z,2.60
2018-04-30T12:26:05.569Z,1.17
2018-04-30T12:28:39.159Z,0.73
2018-04-30T12:31:12.405Z,1.40
2018-04-30T12:33:45.692Z,1.63
2018-04-30T12:36:18.959Z,0.80
2018-04-30T12:38:52.251Z,0.60
2018-04-30T12:41:25.510Z,1.27
2018-04-30T12:43:58.793Z,1.17
2018-04-30T12:46:32.043Z,1.80
2018-04-30T12:49:05.320Z,0.80
2018-04-30T12:51:38.588Z,1.40
2018-04-30T12:54:12.736Z,1.37
2018-04-30T12:56:45.998Z,0.73
2018-04-30T12:59:19.291Z,0.77
2018-04-30T13:01:52.564Z,0.70
2018-04-30T13:04:25.852Z,2.53
2018-04-30T13:06:59.109Z,2.90
2018-04-30T13:09:32.389Z,0.50
2018-04-30T13:12:05.639Z,0.50
2018-04-30T13:14:38.913Z,3.50
2018-04-30T13:17:12.174Z,1.90
2018-04-30T13:19:45.457Z,1.47
2018-04-30T13:22:19.487Z,1.10
2018-04-30T13:24:52.889Z,0.63
2018-04-30T13:27:26.137Z,0.60
2018-04-30T13:30:00.188Z,1.97
2018-04-30T13:32:33.447Z,1.37
2018-04-30T13:35:07.512Z,2.23
2018-04-30T13:37:40.771Z,1.70
2018-04-30T13:40:14.850Z,1.33
2018-04-30T13:42:48.104Z,1.83
2018-04-30T13:45:21.396Z,1.17
2018-04-30T13:47:54.643Z,0.70
2018-04-30T13:50:28.703Z,1.03
2018-04-30T13:53:01.964Z,1.57
2018-04-30T13:55:36.023Z,0.50
2018-04-30T13:58:09.277Z,1.03
2018-04-30T14:00:42.677Z,1.27
2018-04-30T14:03:15.949Z,1.50
2018-04-30T14:05:49.229Z,1.13
2018-04-30T14:08:22.480Z,1.23
2018-04-30T14:10:55.763Z,0.97
2018-04-30T14:13:29.028Z,1.20
2018-04-30T14:16:03.142Z,2.93
2018-04-30T14:18:36.331Z,2.20
2018-04-30T14:21:10.371Z,1.50
2018-04-30T14:23:43.800Z,1.57
2018-04-30T14:26:17.069Z,1.43
2018-04-30T14:28:50.332Z,1.00
2018-04-30T14:31:24.363Z,0.77
2018-04-30T14:33:57.632Z,1.47
2018-04-30T14:36:30.897Z,2.67
2018-04-30T14:39:04.155Z,2.20
2018-04-30T14:41:37.484Z,1.57
2018-04-30T14:44:10.772Z,1.30
2018-04-30T14:46:44.045Z,3.03
2018-04-30T14:49:17.303Z,2.13
2018-04-30T14:51:50.574Z,1.67
2018-04-30T14:54:23.837Z,1.03
2018-04-30T14:56:57.117Z,3.63
2018-04-30T14:59:30.388Z,1.30
2018-04-30T15:02:03.672Z,1.77
2018-04-30T15:04:36.929Z,2.13
2018-04-30T15:07:10.194Z,1.23
2018-04-30T15:09:43.457Z,1.43
2018-04-30T15:12:16.731Z,1.83
2018-04-30T15:14:49.988Z,2.73
2018-04-30T15:17:23.261Z,2.27
2018-04-30T15:19:56.511Z,2.17
2018-04-30T15:22:29.788Z,1.10
2018-04-30T15:25:03.035Z,1.07
2018-04-30T15:27:36.309Z,1.23
2018-04-30T15:30:10.339Z,1.63
2018-04-30T15:32:43.620Z,1.27
2018-04-30T15:35:16.880Z,0.90
2018-04-30T15:37:50.152Z,1.17
2018-04-30T15:40:23.408Z,2.07
2018-04-30T15:42:56.676Z,2.80
2018-04-30T15:45:29.931Z,2.47
2018-04-30T15:48:03.206Z,1.87
2018-04-30T15:50:36.463Z,1.67
2018-04-30T15:53:09.753Z,1.00
2018-04-30T15:55:43.000Z,4.53
2018-04-30T15:58:16.280Z,5.90
2018-04-30T16:00:49.532Z,2.80
2018-04-30T16:03:22.808Z,1.90
2018-04-30T16:05:56.061Z,1.13
2018-04-30T16:08:29.329Z,1.50
2018-04-30T16:11:03.358Z,4.43
2018-04-30T16:13:36.634Z,1.93
2018-04-30T16:16:10.650Z,0.80
2018-04-30T16:18:44.691Z,2.67
2018-04-30T16:21:17.945Z,2.03
2018-04-30T16:23:51.984Z,2.00
2018-04-30T16:26:25.250Z,2.10
2018-04-30T16:28:59.276Z,1.70
2018-04-30T16:31:33.298Z,2.30
2018-04-30T16:34:06.665Z,2.07
2018-04-30T16:36:40.134Z,2.83
2018-04-30T16:39:13.542Z,1.53
2018-04-30T16:41:46.907Z,1.00
2018-04-30T16:44:20.368Z,1.60
2018-04-30T16:46:53.849Z,2.00
2018-04-30T16:49:28.178Z,1.47
2018-04-30T16:52:01.761Z,0.93
2018-04-30T16:54:35.854Z,2.27
2018-04-30T16:57:09.179Z,1.50
2018-04-30T16:59:42.455Z,1.10
2018-04-30T17:02:15.711Z,2.07
2018-04-30T17:04:48.995Z,5.20
2018-04-30T17:07:22.248Z,1.73
2018-04-30T17:09:55.519Z,1.17
2018-04-30T17:12:29.536Z,1.10
2018-04-30T17:15:02.818Z,1.20
2018-04-30T17:17:36.076Z,3.73
2018-04-30T17:20:09.347Z,1.00
2018-04-30T17:22:42.603Z,2.43
2018-04-30T17:25:15.883Z,2.60
2018-04-30T17:27:49.150Z,4.03
2018-04-30T17:30:23.209Z,3.33
2018-04-30T17:32:56.465Z,2.30
2018-04-30T17:35:29.748Z,2.97
2018-04-30T17:38:03.009Z,2.10
2018-04-30T17:40:36.273Z,1.77
2018-04-30T17:43:09.532Z,2.20
2018-04-30T17:45:42.808Z,3.30
2018-04-30T17:48:16.851Z,3.47
2018-04-30T17:50:50.861Z,1.80
2018-04-30T17:53:24.119Z,8.83
2018-04-30T17:55:57.388Z,4.07
2018-04-30T17:58:30.645Z,3.73
2018-04-30T18:01:03.911Z,4.27
2018-04-30T18:03:37.171Z,4.00
2018-04-30T18:06:10.458Z,5.17
2018-04-30T18:08:43.713Z,6.27
2018-04-30T18:11:16.991Z,6.20
2018-04-30T18:13:51.012Z,3.93
2018-04-30T18:16:24.292Z,5.37
2018-04-30T18:18:58.312Z,3.93
2018-04-30T18:21:31.600Z,2.07
2018-04-30T18:24:05.615Z,2.27
2018-04-30T18:26:39.001Z,1.37
2018-04-30T18:29:12.155Z,2.30
2018-04-30T18:31:45.430Z,2.00
2018-04-30T18:34:18.689Z,2.90
2018-04-30T18:36:52.724Z,2.30
2018-04-30T18:39:25.988Z,1.80
2018-04-30T18:41:59.264Z,1.07
2018-04-30T18:44:34.057Z,1.13
2018-04-30T18:47:07.325Z,4.93
2018-04-30T18:49:40.589Z,2.00
2018-04-30T18:52:13.854Z,2.63
2018-04-30T18:54:47.111Z,4.50
2018-04-30T18:57:20.391Z,2.20
2018-04-30T18:59:53.651Z,2.07
2018-04-30T19:02:26.926Z,2.43
2018-04-30T19:05:00.176Z,3.97
2018-04-30T19:07:33.455Z,2.60
2018-04-30T19:10:06.707Z,2.83
2018-04-30T19:12:40.108Z,3.10
2018-04-30T19:15:13.357Z,2.10
2018-04-30T19:17:46.632Z,2.23
2018-04-30T19:20:20.648Z,1.50
2018-04-30T19:22:54.694Z,2.10
2018-04-30T19:25:27.952Z,2.00
2018-04-30T19:28:01.224Z,1.17
2018-04-30T19:30:34.477Z,2.57
2018-04-30T19:33:07.751Z,2.30
2018-04-30T19:35:41.011Z,3.90
2018-04-30T19:38:14.290Z,3.57
2018-04-30T19:40:47.551Z,3.53
2018-04-30T19:43:20.819Z,5.00
2018-04-30T19:45:54.081Z,4.07
2018-04-30T19:48:27.355Z,1.13
2018-04-30T19:51:00.616Z,3.47
2018-04-30T19:53:33.892Z,2.13
2018-04-30T19:56:07.148Z,2.57
2018-04-30T19:58:40.482Z,1.33
2018-04-30T20:01:13.684Z,2.83
2018-04-30T20:03:46.965Z,3.43
2018-04-30T20:06:20.219Z,2.13
2018-04-30T20:08:53.580Z,3.43
2018-04-30T20:11:26.772Z,3.77
2018-04-30T20:14:00.052Z,1.43
2018-04-30T20:16:33.308Z,5.03
2018-04-30T20:19:06.584Z,2.73
2018-04-30T20:21:39.840Z,2.67
2018-04-30T20:24:13.109Z,1.90
2018-04-30T20:26:46.368Z,3.10
2018-04-30T20:29:19.640Z,3.17
2018-04-30T20:31:52.891Z,1.43
2018-04-30T20:34:26.208Z,3.00
2018-04-30T20:36:59.435Z,3.20
2018-04-30T20:39:33.475Z,3.60
2018-04-30T20:42:06.730Z,2.20
2018-04-30T20:44:40.014Z,2.40
2018-04-30T20:47:13.269Z,1.90
2018-04-30T20:49:46.542Z,2.17
2018-04-30T20:52:19.808Z,1.63
2018-04-30T20:54:53.092Z,2.00
2018-04-30T20:57:26.342Z,1.73
2018-04-30T21:00:00.381Z,0.87
2018-04-30T21:02:33.640Z,1.97
2018-04-30T21:05:07.000Z,4.50
2018-04-30T21:07:40.176Z,4.40
2018-04-30T21:10:13.459Z,1.30
2018-04-30T21:12:46.721Z,1.93
2018-04-30T21:15:20.760Z,1.20
2018-04-30T21:17:54.020Z,1.47
2018-04-30T21:20:28.065Z,3.47
2018-04-30T21:23:01.320Z,2.50
